Time;durP1;ratioP1;P1;durP2;ratioP2;P2;SDS_P1;SDS_P2;PMS_P1;PMS_P2;Temp;Humidity;BMP_temperature;BMP_pressure;BME280_temperature;BME280_humidity;BME280_pressure;Samples;Min_cycle;Max_cycle;Signal;HPM_P1;HPM_P2
2023/12/01 09:32:14;;;;;;;9.20;4.40;;;22.40;55.60;;;;;;5111580;28;20465;-84
2023/12/01 09:34:41;;;;;;;5.57;3.87;;;22.40;55.40;;;;;;5115995;28;20441;-84
2023/12/01 09:37:08;;;;;;;4.10;3.80;;;22.40;55.70;;;;;;5118239;28;20478;-84
2023/12/01 09:39:34;;;;;;;3.93;3.63;;;22.50;55.60;;;;;;5121061;27;20473;-85
2023/12/01 09:42:05;;;;;;;4.63;4.23;;;22.50;55.50;;;;;;5129858;27;20472;-85
2023/12/01 09:44:32;;;;;;;4.10;3.80;;;22.50;55.50;;;;;;5138236;27;20937;-84
2023/12/01 09:47:01;;;;;;;7.57;6.57;;;22.50;55.40;;;;;;5138402;27;20433;-84
2023/12/01 09:49:33;;;;;;;5.27;4.77;;;22.50;53.60;;;;;;5138304;27;20433;-84
2023/12/01 09:52:00;;;;;;;4.70;4.27;;;22.50;54.70;;;;;;5137933;27;20786;-84
2023/12/01 09:54:27;;;;;;;6.00;4.30;;;22.50;55.00;;;;;;5138138;27;20900;-84
2023/12/01 09:56:54;;;;;;;5.17;4.67;;;22.50;55.20;;;;;;5129512;27;20433;-84
2023/12/01 09:59:24;;;;;;;6.50;4.50;;;22.40;55.10;;;;;;5137579;27;20443;-84
2023/12/01 10:01:52;;;;;;;4.97;4.13;;;22.50;55.20;;;;;;5137658;27;20429;-84
2023/12/01 10:04:20;;;;;;;4.50;4.20;;;22.50;55.10;;;;;;5137754;27;20785;-84
2023/12/01 10:06:48;;;;;;;5.13;4.20;;;22.50;55.10;;;;;;5137566;27;21276;-84
2023/12/01 10:09:26;;;;;;;4.70;4.10;;;22.50;55.20;;;;;;5137864;27;20429;-84
2023/12/01 10:12:07;;;;;;;4.77;4.37;;;22.50;55.10;;;;;;5137916;27;20457;-84
2023/12/01 10:14:34;;;;;;;4.60;4.17;;;22.50;55.30;;;;;;5138002;27;20808;-84
2023/12/01 10:17:07;;;;;;;4.60;4.27;;;22.50;55.10;;;;;;5137843;27;20434;-84
2023/12/01 10:19:34;;;;;;;5.60;4.40;;;22.50;55.10;;;;;;5137637;27;20532;-84
2023/12/01 10:22:02;;;;;;;3.83;3.53;;;22.50;55.10;;;;;;5137535;27;20932;-84
2023/12/01 10:24:30;;;;;;;5.00;4.50;;;22.50;55.10;;;;;;5137529;27;20434;-84
2023/12/01 10:27:01;;;;;;;4.00;3.60;;;22.50;55.20;;;;;;5137457;27;20441;-84
2023/12/01 10:29:29;;;;;;;4.30;3.90;;;22.50;55.20;;;;;;5137580;27;20507;-84
2023/12/01 10:31:58;;;;;;;6.43;3.90;;;22.50;55.20;;;;;;5129070;27;20469;-84
2023/12/01 10:34:25;;;;;;;4.90;4.30;;;22.50;55.10;;;;;;5137587;27;20437;-84
2023/12/01 10:36:53;;;;;;;5.00;4.13;;;22.50;55.10;;;;;;5137344;27;20444;-84
2023/12/01 10:39:25;;;;;;;4.83;4.43;;;22.50;55.10;;;;;;5137392;27;20924;-85
2023/12/01 10:41:53;;;;;;;5.30;3.93;;;22.50;55.20;;;;;;5137150;27;20457;-85
2023/12/01 10:44:23;;;;;;;3.47;3.17;;;22.50;55.10;;;;;;5137334;27;20847;-84
2023/12/01 10:46:52;;;;;;;4.37;3.97;;;22.50;55.10;;;;;;5135995;27;20813;-84
2023/12/01 10:49:19;;;;;;;3.90;3.60;;;22.50;55.20;;;;;;5137181;27;20437;-84
2023/12/01 10:51:46;;;;;;;4.63;4.10;;;22.50;55.10;;;;;;5137185;27;20428;-84
2023/12/01 10:54:15;;;;;;;4.50;4.03;;;22.50;55.20;;;;;;5137087;27;21040;-84
2023/12/01 10:56:56;;;;;;;3.77;3.47;;;22.50;55.10;;;;;;5136972;27;20452;-84
2023/12/01 10:59:26;;;;;;;7.30;3.80;;;22.50;55.10;;;;;;5136922;27;20437;-84
2023/12/01 11:01:54;;;;;;;4.13;3.50;;;22.50;55.20;;;;;;5137050;27;20433;-84
2023/12/01 11:04:25;;;;;;;3.90;3.60;;;22.50;55.10;;;;;;5136887;27;20434;-84
2023/12/01 11:07:06;;;;;;;4.70;4.30;;;22.50;55.20;;;;;;5136916;27;20430;-84
2023/12/01 11:09:46;;;;;;;3.93;3.63;;;22.50;55.10;;;;;;5136860;27;20792;-84
2023/12/01 11:12:24;;;;;;;3.73;3.43;;;22.50;55.10;;;;;;5136675;27;20457;-84
2023/12/01 11:14:52;;;;;;;3.80;3.50;;;22.50;55.10;;;;;;5136624;27;20445;-84
2023/12/01 11:17:19;;;;;;;4.43;3.90;;;22.50;55.10;;;;;;5136395;27;20436;-84
2023/12/01 11:19:46;;;;;;;4.87;4.40;;;22.50;55.10;;;;;;5136685;27;20464;-84
2023/12/01 11:22:27;;;;;;;3.50;3.30;;;22.50;55.10;;;;;;5136508;27;20434;-84
2023/12/01 11:24:56;;;;;;;4.33;3.80;;;22.50;55.10;;;;;;5136289;27;20445;-84
2023/12/01 11:27:26;;;;;;;3.30;3.10;;;22.50;55.10;;;;;;5136402;27;20430;-84
2023/12/01 11:30:06;;;;;;;4.60;4.20;;;22.50;55.20;;;;;;5137064;27;20430;-89
2023/12/01 11:32:34;;;;;;;3.50;3.20;;;22.50;55.00;;;;;;5136134;27;20473;-87
2023/12/01 11:35:09;;;;;;;3.70;3.10;;;22.60;55.20;;;;;;5136620;27;20532;-88
2023/12/01 11:38:03;;;;;;;4.00;3.63;;;22.60;55.20;;;;;;5136528;27;20461;-87
2023/12/01 11:40:39;;;;;;;3.70;3.40;;;22.60;55.00;;;;;;5136423;27;20467;-87
2023/12/01 11:43:10;;;;;;;11.53;3.80;;;22.60;54.90;;;;;;5136346;27;20417;-88
2023/12/01 11:45:39;;;;;;;6.70;4.70;;;22.60;55.10;;;;;;5136794;27;20434;-88
2023/12/01 11:48:08;;;;;;;4.43;3.80;;;22.60;54.50;;;;;;5136377;27;20470;-88
2023/12/01 11:50:38;;;;;;;4.60;3.60;;;22.60;54.60;;;;;;5136488;27;20433;-89
2023/12/01 11:53:06;;;;;;;4.23;3.10;;;22.60;54.90;;;;;;5139003;27;20920;-93
2023/12/01 11:55:34;;;;;;;5.17;3.80;;;22.60;55.00;;;;;;5144847;27;20437;-94
2023/12/01 11:58:01;;;;;;;10.60;3.73;;;22.60;55.10;;;;;;5136305;27;20469;-86
2023/12/01 12:00:34;;;;;;;3.80;3.40;;;22.60;54.70;;;;;;5136365;27;20437;-90
2023/12/01 12:03:00;;;;;;;3.83;3.37;;;22.60;55.00;;;;;;5138184;27;20456;-84
2023/12/01 12:05:28;;;;;;;4.47;3.20;;;22.70;54.70;;;;;;5135643;27;20438;-85
2023/12/01 12:07:56;;;;;;;7.50;3.20;;;22.60;54.90;;;;;;5135556;27;20437;-84
2023/12/01 12:10:23;;;;;;;3.80;3.43;;;22.60;55.00;;;;;;5135481;27;20444;-84
2023/12/01 12:12:50;;;;;;;3.63;3.33;;;22.60;55.20;;;;;;5135427;27;20446;-84
2023/12/01 12:15:17;;;;;;;3.73;3.43;;;22.60;55.20;;;;;;5135480;27;20437;-84
2023/12/01 12:17:45;;;;;;;5.97;3.63;;;22.60;55.10;;;;;;5135790;27;20822;-84
2023/12/01 12:20:12;;;;;;;3.73;3.43;;;22.60;55.10;;;;;;5135420;27;20452;-84
2023/12/01 12:22:40;;;;;;;5.63;4.03;;;22.60;55.20;;;;;;5135304;27;20429;-84
2023/12/01 12:25:10;;;;;;;3.47;3.17;;;22.60;55.20;;;;;;5135239;27;20434;-84
2023/12/01 12:27:39;;;;;;;4.60;3.73;;;22.60;55.20;;;;;;5135562;27;20429;-84
2023/12/01 12:30:07;;;;;;;3.97;3.57;;;22.60;55.10;;;;;;5135193;27;20437;-84
2023/12/01 12:32:34;;;;;;;5.60;3.77;;;22.60;55.20;;;;;;5135015;27;20469;-84
2023/12/01 12:35:02;;;;;;;5.00;3.70;;;22.60;55.10;;;;;;5135174;27;20433;-84
2023/12/01 12:37:29;;;;;;;4.13;3.43;;;22.60;55.20;;;;;;5135050;27;20518;-84
2023/12/01 12:39:56;;;;;;;3.93;3.53;;;22.60;55.10;;;;;;5134957;27;20429;-84
2023/12/01 12:42:23;;;;;;;3.30;3.00;;;22.60;55.10;;;;;;5134937;27;20461;-84
2023/12/01 12:44:51;;;;;;;4.20;3.80;;;22.60;55.10;;;;;;5134753;27;20430;-84
2023/12/01 12:47:18;;;;;;;3.90;3.60;;;22.60;55.10;;;;;;5134863;27;20426;-84
2023/12/01 12:49:47;;;;;;;4.10;3.80;;;22.60;55.10;;;;;;5134947;27;20429;-84
2023/12/01 12:52:15;;;;;;;3.90;3.60;;;22.60;55.10;;;;;;5135160;27;20438;-84
2023/12/01 12:54:42;;;;;;;3.47;3.17;;;22.60;55.00;;;;;;5134818;27;20506;-84
2023/12/01 12:57:09;;;;;;;3.10;2.90;;;22.60;55.00;;;;;;5134771;27;20433;-84
2023/12/01 12:59:36;;;;;;;3.93;3.63;;;22.60;55.10;;;;;;5134718;27;20835;-84
2023/12/01 13:02:04;;;;;;;4.30;3.67;;;22.60;54.90;;;;;;5134934;27;20849;-84
2023/12/01 13:04:31;;;;;;;3.70;3.40;;;22.60;55.00;;;;;;5134646;27;20438;-84
2023/12/01 13:06:57;;;;;;;3.83;3.53;;;22.60;55.10;;;;;;5134649;27;20430;-84
2023/12/01 13:09:26;;;;;;;4.03;3.70;;;22.60;55.00;;;;;;5133949;27;20438;-84
2023/12/01 13:11:53;;;;;;;4.10;3.50;;;22.60;55.00;;;;;;5134430;27;20510;-84
2023/12/01 13:14:20;;;;;;;3.80;3.50;;;22.60;55.00;;;;;;5134785;27;20434;-84
2023/12/01 13:16:47;;;;;;;3.77;3.47;;;22.60;54.90;;;;;;5134521;27;20438;-84
2023/12/01 13:19:14;;;;;;;4.10;3.70;;;22.60;55.00;;;;;;5134269;27;20512;-84
2023/12/01 13:21:42;;;;;;;3.70;3.40;;;22.70;55.00;;;;;;5134463;27;20421;-84
2023/12/01 13:24:09;;;;;;;3.77;3.47;;;22.60;54.90;;;;;;5134124;28;20529;-84
2023/12/01 13:26:37;;;;;;;4.10;3.53;;;22.60;55.00;;;;;;5134282;28;20430;-84
2023/12/01 13:29:03;;;;;;;3.07;2.87;;;22.60;55.00;;;;;;5134249;28;20431;-84
2023/12/01 13:31:30;;;;;;;3.43;3.23;;;22.60;55.00;;;;;;5133894;28;20430;-84
2023/12/01 13:33:57;;;;;;;2.67;2.47;;;22.60;55.00;;;;;;5134508;28;20433;-84
2023/12/01 13:36:24;;;;;;;3.10;2.90;;;22.70;55.00;;;;;;5134395;28;20537;-84
2023/12/01 13:38:51;;;;;;;3.27;3.07;;;22.60;55.00;;;;;;5134119;28;20485;-83
2023/12/01 13:41:18;;;;;;;8.47;5.10;;;22.60;54.90;;;;;;5133998;28;20777;-84
2023/12/01 13:43:53;;;;;;;4.30;3.90;;;22.60;53.70;;;;;;5134186;28;20448;-93
2023/12/01 13:46:20;;;;;;;3.67;3.37;;;22.60;53.70;;;;;;5136875;28;20449;-85
2023/12/01 13:48:46;;;;;;;5.60;3.73;;;22.60;53.40;;;;;;5135461;28;20449;-85
2023/12/01 13:51:14;;;;;;;3.50;3.10;;;22.60;53.80;;;;;;5135491;28;20533;-86
2023/12/01 13:53:40;;;;;;;3.90;3.60;;;22.60;54.20;;;;;;5134467;28;20438;-86
2023/12/01 13:56:09;;;;;;;3.33;3.03;;;22.60;54.40;;;;;;5134204;28;20441;-87
2023/12/01 13:58:36;;;;;;;3.97;3.60;;;22.60;53.60;;;;;;5134461;28;20632;-87
2023/12/01 14:01:04;;;;;;;3.70;3.40;;;22.60;53.90;;;;;;5134541;28;20531;-88
2023/12/01 14:03:32;;;;;;;5.17;3.30;;;22.60;54.30;;;;;;5133941;28;20434;-92
2023/12/01 14:05:59;;;;;;;13.60;6.17;;;22.60;53.30;;;;;;5134300;28;20486;-86
2023/12/01 14:08:26;;;;;;;7.80;4.77;;;22.50;50.00;;;;;;5133940;28;20446;-87
2023/12/01 14:10:53;;;;;;;3.60;3.30;;;22.30;50.90;;;;;;5133878;28;20458;-87
2023/12/01 14:13:20;;;;;;;6.57;3.93;;;22.20;52.30;;;;;;5133763;28;20434;-86
2023/12/01 14:15:47;;;;;;;8.33;4.20;;;22.10;53.10;;;;;;5144095;28;20422;-93
2023/12/01 14:18:15;;;;;;;6.33;3.87;;;22.10;53.30;;;;;;5133803;28;20938;-86
2023/12/01 14:20:42;;;;;;;4.73;3.40;;;22.10;53.70;;;;;;5136116;27;20436;-87
2023/12/01 14:23:09;;;;;;;5.13;3.33;;;22.10;54.10;;;;;;5137829;27;20441;-86
2023/12/01 14:25:36;;;;;;;5.73;2.93;;;22.20;54.10;;;;;;5137821;27;20448;-86
2023/12/01 14:28:02;;;;;;;3.47;3.17;;;22.20;54.20;;;;;;5137680;27;20438;-86
2023/12/01 14:30:29;;;;;;;5.87;3.63;;;22.20;54.20;;;;;;5137784;27;20448;-86
2023/12/01 14:32:57;;;;;;;6.50;3.43;;;22.30;54.20;;;;;;5137516;27;20471;-85
2023/12/01 14:35:25;;;;;;;4.13;3.33;;;22.30;54.20;;;;;;5137740;27;20491;-92
2023/12/01 14:37:52;;;;;;;6.43;3.80;;;22.40;54.50;;;;;;5137434;27;20951;-90
2023/12/01 14:40:19;;;;;;;3.37;3.03;;;22.50;54.60;;;;;;5137865;27;20503;-85
2023/12/01 14:42:45;;;;;;;4.93;3.20;;;22.50;54.60;;;;;;5138015;27;20438;-94
2023/12/01 14:45:12;;;;;;;3.60;2.63;;;22.50;54.50;;;;;;5137427;27;20433;-84
2023/12/01 14:47:39;;;;;;;2.70;2.50;;;22.50;54.50;;;;;;5136801;27;20441;-84
2023/12/01 14:50:06;;;;;;;3.37;3.07;;;22.60;54.50;;;;;;5136876;27;20442;-84
2023/12/01 14:52:34;;;;;;;5.57;3.53;;;22.60;54.40;;;;;;5137017;27;20445;-84
2023/12/01 14:55:01;;;;;;;5.60;3.57;;;22.60;54.50;;;;;;5137446;27;20430;-85
2023/12/01 14:57:28;;;;;;;5.90;3.07;;;22.60;54.50;;;;;;5137218;27;20432;-84
2023/12/01 14:59:55;;;;;;;5.63;3.57;;;22.60;54.50;;;;;;5137154;27;20482;-84
2023/12/01 15:02:22;;;;;;;3.30;3.00;;;22.60;54.50;;;;;;5137475;27;20433;-84
2023/12/01 15:04:49;;;;;;;3.40;3.00;;;22.60;54.50;;;;;;5137150;27;20440;-84
2023/12/01 15:07:16;;;;;;;3.63;3.07;;;22.60;54.50;;;;;;5137242;27;20436;-95
2023/12/01 15:09:44;;;;;;;3.13;2.93;;;22.60;54.50;;;;;;5136865;27;20434;-84
2023/12/01 15:12:11;;;;;;;3.83;3.53;;;22.60;54.40;;;;;;5136772;27;20533;-84
2023/12/01 15:14:37;;;;;;;3.70;3.40;;;22.60;54.50;;;;;;5137000;27;20430;-84
2023/12/01 15:17:04;;;;;;;3.10;2.80;;;22.60;54.50;;;;;;5136928;27;20426;-90
2023/12/01 15:19:31;;;;;;;4.00;3.27;;;22.60;54.40;;;;;;5136631;27;20535;-84
2023/12/01 15:21:58;;;;;;;3.73;3.43;;;22.60;54.50;;;;;;5136687;27;20441;-85
2023/12/01 15:24:25;;;;;;;4.07;3.77;;;22.60;54.30;;;;;;5136674;27;20917;-84
2023/12/01 15:26:55;;;;;;;3.60;3.30;;;22.60;54.40;;;;;;5136590;27;20491;-85
2023/12/01 15:29:22;;;;;;;3.00;2.80;;;22.60;54.90;;;;;;5136569;27;20445;-85
2023/12/01 15:31:49;;;;;;;3.43;3.00;;;22.60;54.50;;;;;;5135750;27;20453;-84
2023/12/01 15:34:16;;;;;;;3.57;2.73;;;22.60;54.20;;;;;;5136437;27;20434;-85
2023/12/01 15:36:42;;;;;;;5.00;3.50;;;22.60;54.30;;;;;;5136304;27;20432;-84
2023/12/01 15:39:10;;;;;;;4.43;2.43;;;22.60;54.30;;;;;;5136400;27;20485;-94
2023/12/01 15:41:37;;;;;;;3.50;3.10;;;22.70;54.30;;;;;;5136280;27;20458;-84
2023/12/01 15:44:05;;;;;;;3.20;2.90;;;22.60;54.30;;;;;;5136171;27;20434;-84
2023/12/01 15:46:32;;;;;;;2.97;2.77;;;22.60;54.20;;;;;;5136183;27;20436;-84
2023/12/01 15:48:59;;;;;;;4.83;3.63;;;22.60;54.30;;;;;;5136117;27;20433;-88
2023/12/01 15:51:26;;;;;;;3.30;3.00;;;22.60;53.20;;;;;;5136386;27;20445;-88
2023/12/01 15:53:53;;;;;;;4.70;3.37;;;22.60;52.60;;;;;;5136950;27;20442;-84
2023/12/01 15:56:20;;;;;;;3.37;3.07;;;22.60;52.80;;;;;;5135881;27;20440;-85
2023/12/01 15:58:47;;;;;;;5.80;3.07;;;22.50;53.70;;;;;;5135969;27;20464;-86
2023/12/01 16:01:15;;;;;;;3.40;3.10;;;22.50;53.90;;;;;;5136028;27;20537;-85
2023/12/01 16:03:42;;;;;;;3.10;2.90;;;22.50;54.10;;;;;;5135929;27;20457;-85
2023/12/01 16:06:09;;;;;;;3.33;3.03;;;22.50;54.00;;;;;;5135814;27;20434;-92
2023/12/01 16:08:36;;;;;;;3.70;3.40;;;22.50;53.90;;;;;;5135526;27;20430;-93
2023/12/01 16:11:03;;;;;;;3.30;3.00;;;22.50;54.00;;;;;;5135811;27;20468;-85
2023/12/01 16:13:30;;;;;;;3.73;3.47;;;22.50;53.90;;;;;;5135814;27;20568;-85
2023/12/01 16:15:56;;;;;;;3.37;3.07;;;22.50;53.90;;;;;;5135727;27;20430;-85
2023/12/01 16:18:25;;;;;;;3.60;3.30;;;22.50;53.90;;;;;;5135435;27;20418;-84
2023/12/01 16:20:52;;;;;;;6.33;3.30;;;22.70;54.10;;;;;;5135298;27;20486;-93
2023/12/01 16:23:19;;;;;;;2.77;2.57;;;22.60;54.00;;;;;;5135483;27;20809;-85
2023/12/01 16:25:47;;;;;;;3.63;3.37;;;22.60;53.90;;;;;;5135510;27;20448;-85
2023/12/01 16:28:14;;;;;;;3.20;3.00;;;22.70;54.10;;;;;;5135250;27;20444;-85
2023/12/01 16:30:40;;;;;;;2.80;2.60;;;22.50;53.80;;;;;;5135371;27;20434;-85
2023/12/01 16:33:07;;;;;;;2.77;2.57;;;22.60;54.00;;;;;;5135063;27;20493;-85
2023/12/01 16:35:35;;;;;;;3.20;2.90;;;22.60;53.90;;;;;;5135452;27;20760;-93
2023/12/01 16:38:03;;;;;;;3.20;2.90;;;22.60;54.00;;;;;;5135241;27;20436;-85
2023/12/01 16:40:30;;;;;;;2.73;2.53;;;22.60;54.00;;;;;;5135110;27;20477;-85
2023/12/01 16:42:58;;;;;;;3.07;2.87;;;22.60;54.10;;;;;;5134845;27;20445;-84
2023/12/01 16:45:25;;;;;;;2.90;2.70;;;22.50;54.00;;;;;;5134800;27;20444;-84
2023/12/01 16:47:52;;;;;;;3.53;3.23;;;22.50;54.00;;;;;;5135204;27;20442;-84
2023/12/01 16:50:19;;;;;;;3.27;3.00;;;22.50;54.00;;;;;;5135108;27;20867;-85
2023/12/01 16:52:47;;;;;;;3.90;3.00;;;22.50;54.00;;;;;;5134965;27;20452;-87
2023/12/01 16:55:14;;;;;;;2.97;2.77;;;22.50;53.90;;;;;;5134801;27;20430;-92
2023/12/01 16:57:41;;;;;;;3.40;2.67;;;22.50;54.00;;;;;;5135010;27;20453;-85
2023/12/01 17:00:09;;;;;;;3.40;3.10;;;22.60;54.00;;;;;;5134943;27;20489;-85
2023/12/01 17:02:35;;;;;;;3.70;3.40;;;22.60;53.90;;;;;;5134737;27;20528;-85
2023/12/01 17:05:02;;;;;;;2.83;2.63;;;22.50;54.60;;;;;;5134519;27;20428;-85
2023/12/01 17:07:29;;;;;;;2.60;2.40;;;22.60;54.10;;;;;;5134633;27;20426;-85
2023/12/01 17:09:57;;;;;;;3.17;2.97;;;22.50;53.90;;;;;;5134485;27;20436;-85
2023/12/01 17:12:24;;;;;;;2.57;2.37;;;22.60;54.00;;;;;;5134489;27;20948;-84
2023/12/01 17:14:51;;;;;;;2.73;2.53;;;22.60;54.00;;;;;;5134579;27;20507;-85
2023/12/01 17:17:17;;;;;;;2.73;2.40;;;22.50;53.90;;;;;;5134739;27;20441;-85
2023/12/01 17:19:44;;;;;;;3.10;2.90;;;22.60;54.10;;;;;;5134501;27;20481;-85
2023/12/01 17:22:11;;;;;;;2.93;2.73;;;22.50;53.90;;;;;;5134360;27;20430;-84
2023/12/01 17:24:41;;;;;;;2.97;2.67;;;22.60;54.00;;;;;;5134546;27;20944;-85
2023/12/01 17:27:10;;;;;;;2.90;2.70;;;22.60;53.90;;;;;;5134588;28;20437;-85
2023/12/01 17:29:37;;;;;;;2.60;2.40;;;22.60;54.00;;;;;;5134488;28;20429;-85
2023/12/01 17:32:04;;;;;;;3.47;3.27;;;22.60;53.90;;;;;;5134348;28;20465;-85
2023/12/01 17:34:31;;;;;;;3.20;2.90;;;22.60;53.80;;;;;;5134452;28;20433;-85
2023/12/01 17:36:58;;;;;;;2.47;2.27;;;22.60;53.90;;;;;;5134687;28;20769;-85
2023/12/01 17:39:25;;;;;;;3.10;2.90;;;22.60;53.90;;;;;;5134219;28;20488;-85
2023/12/01 17:41:52;;;;;;;3.03;2.83;;;22.70;54.00;;;;;;5134286;28;20986;-85
2023/12/01 17:44:20;;;;;;;2.80;2.60;;;22.60;54.00;;;;;;5134225;28;20430;-85
2023/12/01 17:46:48;;;;;;;2.90;2.70;;;22.60;54.00;;;;;;5134299;28;20429;-85
2023/12/01 17:49:14;;;;;;;2.80;2.60;;;22.60;54.50;;;;;;5134411;28;20855;-85
2023/12/01 17:51:42;;;;;;;3.60;3.30;;;22.60;53.90;;;;;;5134318;28;20440;-85
2023/12/01 17:54:09;;;;;;;2.97;2.77;;;22.60;53.90;;;;;;5134281;28;20433;-85
2023/12/01 17:56:36;;;;;;;3.00;2.80;;;22.60;54.00;;;;;;5137775;27;20441;-85
2023/12/01 17:59:03;;;;;;;3.20;3.00;;;22.70;53.90;;;;;;5138487;27;20438;-93
2023/12/01 18:01:34;;;;;;;2.87;2.67;;;22.60;54.00;;;;;;5138300;27;20488;-85
2023/12/01 18:04:01;;;;;;;2.83;2.63;;;22.60;53.90;;;;;;5138272;27;20432;-85
2023/12/01 18:06:28;;;;;;;2.97;2.77;;;22.60;53.90;;;;;;5138005;27;20448;-85
2023/12/01 18:08:54;;;;;;;2.90;2.70;;;22.60;53.90;;;;;;5138066;27;20444;-85
2023/12/01 18:11:23;;;;;;;2.63;2.47;;;22.60;53.90;;;;;;5138183;27;20792;-85
2023/12/01 18:13:50;;;;;;;2.77;2.57;;;22.60;53.90;;;;;;5138111;27;20772;-85
2023/12/01 18:16:17;;;;;;;2.70;2.50;;;22.60;53.90;;;;;;5138091;27;20521;-85
2023/12/01 18:18:46;;;;;;;3.37;3.17;;;22.60;53.90;;;;;;5137770;27;21005;-85
2023/12/01 18:21:13;;;;;;;2.83;2.63;;;22.60;53.80;;;;;;5137866;27;20483;-89
2023/12/01 18:23:39;;;;;;;3.03;2.83;;;22.60;53.80;;;;;;5137909;27;20452;-88
2023/12/01 18:26:07;;;;;;;2.80;2.60;;;22.60;53.90;;;;;;5137676;27;20460;-85
2023/12/01 18:28:34;;;;;;;3.00;2.40;;;22.60;54.50;;;;;;5137802;27;20425;-85
2023/12/01 18:31:01;;;;;;;2.47;2.30;;;22.50;53.80;;;;;;5137899;27;20438;-93
2023/12/01 18:33:27;;;;;;;2.97;2.77;;;22.60;53.90;;;;;;5137400;27;20477;-85
2023/12/01 18:35:55;;;;;;;3.00;2.80;;;22.60;54.00;;;;;;5137518;27;21005;-85
2023/12/01 18:38:22;;;;;;;2.50;2.30;;;22.60;53.90;;;;;;5137454;27;20441;-89
2023/12/01 18:40:49;;;;;;;3.13;2.93;;;22.60;53.90;;;;;;5137498;27;20489;-85
2023/12/01 18:43:16;;;;;;;3.33;3.03;;;22.60;53.90;;;;;;5137460;27;20434;-93
2023/12/01 18:45:43;;;;;;;2.40;2.20;;;22.60;53.80;;;;;;5137303;27;20444;-85
2023/12/01 18:48:09;;;;;;;2.80;2.60;;;22.60;54.50;;;;;;5137255;27;20440;-85
2023/12/01 18:50:36;;;;;;;2.43;2.23;;;22.60;53.90;;;;;;5137138;27;20442;-85
2023/12/01 18:53:04;;;;;;;2.87;2.67;;;22.60;53.90;;;;;;5137519;27;20810;-85
2023/12/01 18:55:31;;;;;;;3.37;3.13;;;22.60;53.80;;;;;;5137285;27;20438;-85
2023/12/01 18:57:58;;;;;;;2.30;2.10;;;22.60;53.70;;;;;;5137403;27;20520;-85
2023/12/01 19:00:26;;;;;;;3.10;2.90;;;22.70;53.90;;;;;;5137078;27;21002;-85
2023/12/01 19:02:53;;;;;;;2.87;2.67;;;22.60;53.90;;;;;;5136953;27;20804;-85
2023/12/01 19:05:20;;;;;;;2.27;2.07;;;22.60;53.90;;;;;;5136986;27;20441;-86
2023/12/01 19:07:47;;;;;;;2.70;2.50;;;22.60;53.90;;;;;;5136187;27;20815;-92
2023/12/01 19:10:15;;;;;;;2.40;2.20;;;22.60;53.70;;;;;;5136949;27;20430;-85
2023/12/01 19:12:42;;;;;;;2.83;2.63;;;22.60;53.80;;;;;;5137076;27;20430;-85
2023/12/01 19:15:10;;;;;;;3.60;3.30;;;22.60;53.80;;;;;;5136760;27;20468;-89
2023/12/01 19:17:37;;;;;;;2.50;2.30;;;22.60;53.70;;;;;;5136902;27;20436;-85
2023/12/01 19:20:04;;;;;;;5.57;3.30;;;22.60;53.70;;;;;;5136792;27;20481;-87
2023/12/01 19:22:31;;;;;;;3.17;2.93;;;22.60;53.10;;;;;;5136845;27;20449;-88
2023/12/01 19:24:58;;;;;;;2.80;2.60;;;22.50;51.60;;;;;;5137160;27;20538;-85
2023/12/01 19:27:26;;;;;;;2.27;2.17;;;22.50;51.90;;;;;;5139512;27;20469;-84
2023/12/01 19:29:53;;;;;;;3.10;2.90;;;22.50;53.20;;;;;;5136726;27;20775;-84
2023/12/01 19:32:20;;;;;;;2.57;2.40;;;22.50;53.30;;;;;;5137571;27;20487;-95
2023/12/01 19:34:47;;;;;;;2.40;2.20;;;22.50;53.20;;;;;;5140117;27;20441;-84
2023/12/01 19:37:14;;;;;;;3.17;2.97;;;22.50;53.30;;;;;;5140064;27;20529;-84
2023/12/01 19:39:40;;;;;;;3.30;3.00;;;22.50;53.30;;;;;;5137147;27;20426;-86
2023/12/01 19:42:07;;;;;;;3.00;2.80;;;22.50;53.40;;;;;;5136631;27;20456;-84
2023/12/01 19:44:36;;;;;;;3.50;2.40;;;22.50;53.40;;;;;;5136403;27;20437;-94
2023/12/01 19:47:03;;;;;;;4.50;3.00;;;22.60;53.70;;;;;;5133931;27;20452;-83
2023/12/01 19:49:30;;;;;;;2.80;2.60;;;22.60;53.90;;;;;;5135025;27;20438;-91
2023/12/01 19:51:57;;;;;;;3.17;2.40;;;22.60;53.80;;;;;;5127850;27;20449;-84
2023/12/01 19:54:23;;;;;;;3.07;2.47;;;22.60;52.40;;;;;;5125140;27;20440;-93
2023/12/01 19:56:50;;;;;;;7.33;3.40;;;22.60;53.50;;;;;;5115959;28;20434;-90
2023/12/01 19:59:17;;;;;;;3.33;3.00;;;22.60;53.70;;;;;;5117454;27;20427;-83
2023/12/01 20:01:48;;;;;;;3.70;2.63;;;22.60;54.10;;;;;;5135722;27;21075;-85
2023/12/01 20:04:15;;;;;;;2.97;2.67;;;22.60;54.00;;;;;;5135974;27;20796;-84
2023/12/01 20:06:42;;;;;;;5.07;3.47;;;22.60;54.10;;;;;;5117692;27;20442;-85
2023/12/01 20:09:09;;;;;;;4.80;2.70;;;22.60;54.10;;;;;;5136909;27;20932;-90
2023/12/01 20:11:36;;;;;;;6.53;2.60;;;22.60;54.20;;;;;;5136841;27;20453;-84
2023/12/01 20:14:03;;;;;;;11.47;2.80;;;22.70;54.20;;;;;;5135254;27;20525;-83
2023/12/01 20:16:30;;;;;;;2.50;2.30;;;22.70;54.50;;;;;;5131261;27;20442;-89
2023/12/01 20:18:59;;;;;;;2.70;2.23;;;22.70;54.00;;;;;;5135314;27;20438;-83
2023/12/01 20:21:26;;;;;;;3.70;2.70;;;22.70;54.30;;;;;;5135839;27;20489;-92
2023/12/01 20:23:53;;;;;;;2.77;2.37;;;22.70;54.40;;;;;;5136377;27;20449;-95
2023/12/01 20:26:20;;;;;;;8.27;2.77;;;22.80;54.40;;;;;;5136963;27;20490;-96
2023/12/01 20:28:47;;;;;;;2.97;2.67;;;22.80;54.40;;;;;;5136412;27;20502;-91
2023/12/01 20:31:14;;;;;;;3.87;3.00;;;22.90;54.40;;;;;;5135303;27;20434;-93
2023/12/01 20:33:40;;;;;;;3.30;2.37;;;22.90;54.20;;;;;;5137003;27;20488;-91
2023/12/01 20:36:10;;;;;;;2.80;2.60;;;22.90;54.50;;;;;;5135527;27;20780;-90
2023/12/01 20:38:37;;;;;;;3.73;2.30;;;22.90;54.50;;;;;;5135319;27;20432;-93
2023/12/01 20:41:06;;;;;;;5.03;3.23;;;22.90;54.50;;;;;;5135767;27;20980;-94
2023/12/01 20:43:33;;;;;;;2.80;2.60;;;22.90;54.40;;;;;;5135500;27;20438;-91
2023/12/01 20:46:00;;;;;;;2.70;2.50;;;23.00;54.40;;;;;;5135711;27;20517;-91
2023/12/01 20:48:27;;;;;;;5.10;2.43;;;23.00;54.30;;;;;;5135850;27;20433;-92
2023/12/01 20:50:54;;;;;;;3.07;2.77;;;23.00;54.40;;;;;;5138667;27;20430;-96
2023/12/01 20:53:22;;;;;;;2.73;2.53;;;23.00;54.40;;;;;;5146116;27;20444;-84
2023/12/01 20:55:49;;;;;;;2.97;2.67;;;23.10;54.50;;;;;;5134623;27;20444;-83
2023/12/01 20:58:16;;;;;;;2.73;2.53;;;23.00;54.40;;;;;;5134577;27;20527;-83
2023/12/01 21:00:42;;;;;;;2.77;2.57;;;23.00;54.40;;;;;;5135823;27;20548;-96
2023/12/01 21:03:09;;;;;;;2.60;2.07;;;23.00;54.40;;;;;;5141873;27;20539;-94
2023/12/01 21:05:36;;;;;;;3.27;2.37;;;23.10;54.40;;;;;;5137035;27;20490;-94
2023/12/01 21:08:02;;;;;;;2.63;2.43;;;23.10;54.40;;;;;;5137765;27;20444;-96
2023/12/01 21:10:30;;;;;;;2.80;2.20;;;23.10;54.30;;;;;;5137832;27;20552;-96
2023/12/01 21:12:57;;;;;;;2.40;2.20;;;23.10;54.50;;;;;;5135376;27;20441;-93
2023/12/01 21:15:24;;;;;;;2.60;2.40;;;23.10;54.40;;;;;;5135337;27;20921;-94
2023/12/01 21:17:50;;;;;;;3.00;2.10;;;23.20;54.50;;;;;;5134991;27;20884;-96
2023/12/01 21:20:17;;;;;;;3.23;2.20;;;23.20;54.40;;;;;;5135112;27;20436;-96
2023/12/01 21:22:44;;;;;;;6.13;2.70;;;23.10;54.40;;;;;;5136274;27;20438;-96
2023/12/01 21:25:10;;;;;;;4.43;3.00;;;23.10;54.40;;;;;;5135732;27;20448;-96
2023/12/01 21:27:40;;;;;;;2.40;2.30;;;23.00;54.40;;;;;;5136864;27;20434;-93
2023/12/01 21:30:07;;;;;;;1.70;1.60;;;23.10;54.50;;;;;;5134348;27;20770;-90
2023/12/01 21:32:36;;;;;;;3.50;2.47;;;23.10;54.40;;;;;;5125511;28;20473;-83
2023/12/01 21:35:03;;;;;;;3.23;2.23;;;23.00;54.30;;;;;;5134080;28;20877;-83
2023/12/01 21:37:30;;;;;;;8.43;2.70;;;23.20;54.60;;;;;;5133895;28;20963;-83
2023/12/01 21:39:57;;;;;;;2.97;2.43;;;23.10;54.50;;;;;;5133912;28;20486;-84
2023/12/01 21:42:24;;;;;;;2.70;2.50;;;23.10;54.50;;;;;;5129663;28;20501;-84
2023/12/01 21:44:52;;;;;;;3.70;2.40;;;23.10;54.50;;;;;;5113394;28;20445;-84
2023/12/01 21:47:19;;;;;;;2.90;2.50;;;23.10;54.50;;;;;;5113347;28;20461;-84
2023/12/01 21:49:45;;;;;;;2.97;2.23;;;23.10;54.50;;;;;;5113424;28;20435;-93
2023/12/01 21:52:12;;;;;;;2.70;2.50;;;23.10;54.50;;;;;;5113412;28;20437;-84
2023/12/01 21:54:39;;;;;;;3.03;2.40;;;23.00;54.40;;;;;;5113636;28;20437;-94
2023/12/01 21:57:06;;;;;;;4.33;2.67;;;23.10;54.50;;;;;;5113603;28;20427;-84
2023/12/01 21:59:33;;;;;;;2.97;2.60;;;23.10;54.60;;;;;;5113533;28;20439;-83
2023/12/01 22:02:02;;;;;;;2.60;2.40;;;23.10;54.60;;;;;;5114292;28;20485;-83
2023/12/01 22:04:29;;;;;;;6.63;2.50;;;23.10;54.70;;;;;;5114423;28;20438;-83
2023/12/01 22:06:56;;;;;;;6.70;2.63;;;23.00;54.70;;;;;;5113491;28;20438;-83
2023/12/01 22:09:23;;;;;;;3.40;2.80;;;23.00;54.70;;;;;;5114489;28;20418;-83
2023/12/01 22:11:50;;;;;;;2.53;2.33;;;23.00;54.70;;;;;;5115810;28;20836;-83
2023/12/01 22:14:17;;;;;;;3.60;2.97;;;23.10;54.60;;;;;;5113161;28;20438;-83
2023/12/01 22:16:44;;;;;;;2.87;2.17;;;23.10;54.60;;;;;;5113114;28;20435;-83
2023/12/01 22:19:13;;;;;;;2.50;2.30;;;23.10;54.50;;;;;;5113202;28;20787;-83